Time;durP1;ratioP1;P1;durP2;ratioP2;P2;SDS_P1;SDS_P2;PMS_P1;PMS_P2;Temp;Humidity;BMP_temperature;BMP_pressure;BME280_temperature;BME280_humidity;BME280_pressure;Samples;Min_cycle;Max_cycle;Signal;HPM_P1;HPM_P2
2022/03/01 00:00:24;;;;;;;22.08;14.10;;;-1.10;99.90;;;;;;5041117;28;20250;-42
2022/03/01 00:02:51;;;;;;;24.83;15.95;;;-1.10;99.90;;;;;;5041385;28;20538;-43
2022/03/01 00:05:19;;;;;;;19.35;13.27;;;-1.10;99.90;;;;;;5040644;28;20510;-45
2022/03/01 00:07:46;;;;;;;20.33;14.35;;;-1.10;99.90;;;;;;5041213;28;20318;-43
2022/03/01 00:10:13;;;;;;;23.45;14.25;;;-1.10;99.90;;;;;;5040089;28;20208;-42
2022/03/01 00:12:40;;;;;;;25.77;15.52;;;-1.00;99.90;;;;;;5040081;28;20221;-42
2022/03/01 00:15:08;;;;;;;22.92;13.50;;;-1.00;99.90;;;;;;5039394;28;20522;-43
2022/03/01 00:17:36;;;;;;;26.13;13.90;;;-1.00;99.90;;;;;;5039894;28;20204;-44
2022/03/01 00:20:05;;;;;;;26.20;14.48;;;-1.10;99.90;;;;;;5040251;28;20211;-45
2022/03/01 00:22:33;;;;;;;19.83;12.82;;;-1.10;99.90;;;;;;5039787;28;20254;-42
2022/03/01 00:25:02;;;;;;;22.05;12.48;;;-1.20;99.90;;;;;;5041028;28;20272;-49
2022/03/01 00:27:29;;;;;;;22.30;13.85;;;-1.10;99.90;;;;;;5039530;28;20301;-45
2022/03/01 00:29:56;;;;;;;22.85;15.05;;;-1.20;99.90;;;;;;5039963;28;20245;-42
2022/03/01 00:32:23;;;;;;;24.08;16.33;;;-1.20;99.90;;;;;;5040186;28;20220;-43
2022/03/01 00:34:50;;;;;;;25.55;14.15;;;-1.20;99.90;;;;;;5039908;28;20243;-43
2022/03/01 00:37:17;;;;;;;29.27;15.65;;;-1.20;99.90;;;;;;5040110;28;20220;-43
2022/03/01 00:39:44;;;;;;;27.42;15.18;;;-1.10;99.90;;;;;;5039112;28;20557;-43
2022/03/01 00:42:11;;;;;;;28.08;15.43;;;-1.20;99.90;;;;;;5039396;28;20220;-44
2022/03/01 00:44:39;;;;;;;26.50;15.40;;;-1.20;99.90;;;;;;5039175;28;20550;-43
2022/03/01 00:47:06;;;;;;;23.60;14.00;;;-1.10;99.90;;;;;;5039510;28;20450;-42
2022/03/01 00:49:34;;;;;;;24.83;15.80;;;-1.20;99.90;;;;;;5039348;28;20254;-45
2022/03/01 00:52:04;;;;;;;25.83;14.55;;;-1.30;99.90;;;;;;5039425;28;20243;-46
2022/03/01 00:54:32;;;;;;;29.10;17.63;;;-1.30;99.90;;;;;;5039672;28;20200;-41
2022/03/01 00:56:59;;;;;;;18.60;15.40;;;-1.30;99.90;;;;;;5039154;28;20262;-42
2022/03/01 00:59:26;;;;;;;22.52;14.60;;;-1.50;99.90;;;;;;5039066;28;20503;-43
2022/03/01 01:01:53;;;;;;;22.15;14.02;;;-1.30;99.90;;;;;;5038912;28;20216;-43
2022/03/01 01:04:20;;;;;;;24.83;16.85;;;-1.30;99.90;;;;;;5038964;28;20184;-43
2022/03/01 01:06:48;;;;;;;26.58;15.55;;;-1.50;99.90;;;;;;5038924;28;20270;-43
2022/03/01 01:09:15;;;;;;;23.95;14.38;;;-1.50;99.90;;;;;;5038883;28;20569;-43
2022/03/01 01:11:42;;;;;;;20.15;13.25;;;-1.40;99.90;;;;;;5038570;28;20239;-43
2022/03/01 01:14:10;;;;;;;31.70;17.05;;;-1.60;99.90;;;;;;5038736;28;20222;-47
2022/03/01 01:16:38;;;;;;;18.83;13.80;;;-1.80;99.90;;;;;;5039199;28;20231;-46
2022/03/01 01:19:05;;;;;;;22.80;14.13;;;-1.60;99.90;;;;;;5039258;28;20196;-43
2022/03/01 01:24:19;;;;;;;26.50;16.02;;;-1.60;99.90;;;;;;5038796;28;20211;-46
2022/03/01 01:26:46;;;;;;;34.58;16.55;;;-1.60;99.90;;;;;;5040825;28;20200;-44
2022/03/01 01:29:14;;;;;;;27.50;15.43;;;-1.50;99.90;;;;;;5042677;28;20326;-42
2022/03/01 01:31:41;;;;;;;25.30;14.05;;;-1.70;99.90;;;;;;5042826;28;20226;-45
2022/03/01 01:34:08;;;;;;;24.48;15.77;;;-1.60;99.90;;;;;;5042870;28;20419;-45
2022/03/01 01:36:35;;;;;;;25.95;15.80;;;-1.60;99.90;;;;;;5043192;28;20396;-42
2022/03/01 01:39:02;;;;;;;26.08;15.70;;;-1.70;99.90;;;;;;5042920;28;20298;-45
2022/03/01 01:41:30;;;;;;;28.45;16.90;;;-1.80;99.90;;;;;;5042364;28;20572;-42
2022/03/01 01:43:59;;;;;;;27.80;16.83;;;-1.70;99.90;;;;;;5042565;28;20480;-42
2022/03/01 01:46:26;;;;;;;28.88;17.27;;;-1.80;99.90;;;;;;5042574;28;20204;-47
2022/03/01 01:48:53;;;;;;;25.98;17.20;;;-1.80;99.90;;;;;;5042690;28;20219;-42
2022/03/01 01:51:20;;;;;;;25.80;16.13;;;-1.70;99.90;;;;;;5042153;28;20223;-46
2022/03/01 01:53:47;;;;;;;29.00;16.02;;;-1.80;99.90;;;;;;5042727;28;20208;-44
2022/03/01 01:56:14;;;;;;;24.50;17.40;;;-1.80;99.90;;;;;;5042467;28;20274;-45
2022/03/01 01:58:42;;;;;;;27.08;17.90;;;-1.90;99.90;;;;;;5042509;28;20200;-42
2022/03/01 02:01:09;;;;;;;34.33;17.40;;;-1.80;99.90;;;;;;5040818;28;20228;-45
2022/03/01 02:03:37;;;;;;;21.02;15.02;;;-1.90;99.90;;;;;;5042107;28;20204;-43
2022/03/01 02:06:04;;;;;;;28.70;18.48;;;-1.90;99.90;;;;;;5043003;28;20204;-45
2022/03/01 02:08:32;;;;;;;29.90;16.55;;;-1.80;99.90;;;;;;5043243;28;20235;-43
2022/03/01 02:11:00;;;;;;;34.97;17.55;;;-1.80;99.90;;;;;;5042396;28;20194;-42
2022/03/01 02:13:28;;;;;;;34.22;18.02;;;-1.80;99.90;;;;;;5041637;28;20193;-41
2022/03/01 02:15:56;;;;;;;31.48;17.05;;;-1.80;99.90;;;;;;5042212;28;20235;-41
2022/03/01 02:18:24;;;;;;;29.85;17.42;;;-1.80;99.90;;;;;;5042482;28;20204;-42
2022/03/01 02:20:51;;;;;;;21.70;17.42;;;-1.90;99.90;;;;;;5042169;28;20205;-44
2022/03/01 02:23:18;;;;;;;30.05;17.75;;;-1.90;99.90;;;;;;5041962;28;20197;-44
2022/03/01 02:25:45;;;;;;;36.15;18.63;;;-1.90;99.90;;;;;;5041871;28;20499;-41
2022/03/01 02:28:12;;;;;;;21.73;16.95;;;-1.90;99.90;;;;;;5042560;28;20208;-46
2022/03/01 02:30:39;;;;;;;30.17;18.48;;;-1.70;99.90;;;;;;5043521;28;20196;-43
2022/03/01 02:33:06;;;;;;;30.23;19.13;;;-1.70;99.90;;;;;;5041888;28;20198;-41
2022/03/01 02:35:34;;;;;;;32.35;17.60;;;-1.90;99.90;;;;;;5041260;28;20390;-43
2022/03/01 02:38:01;;;;;;;27.00;17.23;;;-1.80;99.90;;;;;;5041760;28;20448;-42
2022/03/01 02:40:28;;;;;;;27.73;18.33;;;-1.80;99.90;;;;;;5041409;28;20235;-45
2022/03/01 02:42:55;;;;;;;28.25;18.35;;;-1.90;99.90;;;;;;5041090;28;20274;-41
2022/03/01 02:45:23;;;;;;;30.23;17.33;;;-1.80;99.90;;;;;;5041333;28;20243;-48
2022/03/01 02:47:50;;;;;;;29.15;17.05;;;-1.90;99.90;;;;;;5041205;28;20200;-41
2022/03/01 02:50:19;;;;;;;31.45;18.63;;;-1.80;99.90;;;;;;5041241;28;20210;-41
2022/03/01 02:52:46;;;;;;;31.00;19.98;;;-1.80;99.90;;;;;;5041043;28;20231;-41
2022/03/01 02:55:14;;;;;;;34.28;18.95;;;-1.90;99.90;;;;;;5041000;28;20503;-43
2022/03/01 02:57:41;;;;;;;29.27;16.45;;;-2.00;99.90;;;;;;5040926;28;20228;-46
2022/03/01 03:00:10;;;;;;;32.90;18.67;;;-1.90;99.90;;;;;;5041086;28;20219;-42
2022/03/01 03:02:40;;;;;;;30.33;16.98;;;-1.80;99.90;;;;;;5041494;28;20323;-43
2022/03/01 03:05:10;;;;;;;26.40;16.38;;;-1.80;99.90;;;;;;5041127;28;20253;-43
2022/03/01 03:07:37;;;;;;;28.25;16.50;;;-1.80;99.90;;;;;;5042278;28;20252;-41
2022/03/01 03:10:04;;;;;;;28.83;17.27;;;-1.90;99.90;;;;;;5042358;28;20247;-42
2022/03/01 03:12:32;;;;;;;21.05;15.85;;;-2.00;99.90;;;;;;5041107;28;20270;-40
2022/03/01 03:14:59;;;;;;;27.40;17.10;;;-2.10;99.90;;;;;;5041079;28;20208;-42
2022/03/01 03:17:26;;;;;;;32.90;18.45;;;-2.10;99.90;;;;;;5041289;28;20338;-40
2022/03/01 03:19:53;;;;;;;29.60;16.30;;;-2.00;99.90;;;;;;5040992;28;20199;-42
2022/03/01 03:22:21;;;;;;;27.40;16.00;;;-1.90;99.90;;;;;;5041606;28;20220;-41
2022/03/01 03:24:48;;;;;;;29.90;17.23;;;-2.10;99.90;;;;;;5042167;28;20206;-41
2022/03/01 03:27:15;;;;;;;26.40;17.23;;;-2.10;99.90;;;;;;5041194;28;20247;-46
2022/03/01 03:29:42;;;;;;;32.42;18.42;;;-2.10;99.90;;;;;;5040707;28;20200;-41
2022/03/01 03:32:09;;;;;;;26.85;15.40;;;-2.00;99.90;;;;;;5040570;28;20267;-47
2022/03/01 03:34:37;;;;;;;32.05;17.38;;;-2.00;99.90;;;;;;5041112;28;20206;-44
2022/03/01 03:37:04;;;;;;;29.25;17.90;;;-2.10;99.90;;;;;;5041104;28;20410;-44
2022/03/01 03:39:32;;;;;;;26.50;17.75;;;-2.00;99.90;;;;;;5041259;28;20192;-45
2022/03/01 03:41:59;;;;;;;32.08;19.40;;;-2.00;99.90;;;;;;5041284;28;20238;-43
2022/03/01 03:44:26;;;;;;;29.42;17.67;;;-2.00;99.90;;;;;;5040971;28;20203;-40
2022/03/01 03:46:53;;;;;;;33.85;20.58;;;-2.10;99.90;;;;;;5042289;28;20367;-41
2022/03/01 03:49:22;;;;;;;25.15;15.95;;;-2.30;99.90;;;;;;5040876;28;20219;-41
2022/03/01 03:51:49;;;;;;;29.52;17.00;;;-2.20;99.90;;;;;;5042440;28;20226;-42
2022/03/01 03:54:16;;;;;;;26.17;16.58;;;-2.20;99.90;;;;;;5039929;28;20325;-41
2022/03/01 03:56:44;;;;;;;34.33;19.50;;;-2.10;99.90;;;;;;5040907;28;20227;-40
2022/03/01 03:59:11;;;;;;;26.00;16.90;;;-2.00;99.90;;;;;;5040373;28;20503;-41
2022/03/01 04:01:38;;;;;;;29.50;19.63;;;-2.00;99.90;;;;;;5040127;28;20398;-43
2022/03/01 04:04:08;;;;;;;34.05;17.83;;;-2.10;99.90;;;;;;5040177;28;20526;-41
2022/03/01 04:06:35;;;;;;;26.73;17.17;;;-2.20;99.90;;;;;;5039895;28;20537;-40
2022/03/01 04:09:04;;;;;;;34.13;18.88;;;-2.10;99.90;;;;;;5040220;28;20204;-44
2022/03/01 04:11:31;;;;;;;28.48;18.48;;;-2.10;99.90;;;;;;5040022;28;20227;-42
2022/03/01 04:14:00;;;;;;;32.20;19.17;;;-2.10;99.90;;;;;;5039028;28;20200;-42
2022/03/01 04:16:30;;;;;;;35.78;17.98;;;-1.90;99.90;;;;;;5039554;28;20600;-44
2022/03/01 04:18:57;;;;;;;32.53;19.75;;;-1.80;99.90;;;;;;5040303;28;20233;-46
2022/03/01 04:21:24;;;;;;;33.30;18.55;;;-1.90;99.90;;;;;;5039681;28;20223;-45
2022/03/01 04:23:51;;;;;;;34.95;19.52;;;-1.90;99.90;;;;;;5038512;28;20203;-40
2022/03/01 04:26:18;;;;;;;31.38;19.50;;;-1.80;99.90;;;;;;5039472;28;20200;-43
2022/03/01 04:28:45;;;;;;;29.30;21.35;;;-1.80;99.90;;;;;;5039622;28;20200;-42
2022/03/01 04:31:12;;;;;;;31.15;17.83;;;-1.90;99.90;;;;;;5039781;28;20262;-41
2022/03/01 04:33:39;;;;;;;32.53;18.55;;;-1.90;99.90;;;;;;5039635;28;20204;-38
2022/03/01 04:36:08;;;;;;;29.88;19.73;;;-1.80;99.90;;;;;;5039360;28;20196;-46
2022/03/01 04:38:35;;;;;;;40.05;21.60;;;-1.80;99.90;;;;;;5040593;28;20205;-41
2022/03/01 04:41:04;;;;;;;36.88;21.40;;;-1.80;99.90;;;;;;5039421;28;20224;-47
2022/03/01 04:43:32;;;;;;;37.45;19.52;;;-1.80;99.90;;;;;;5039370;28;20237;-46
2022/03/01 04:45:59;;;;;;;36.17;22.70;;;-2.00;99.90;;;;;;5039504;28;20202;-42
2022/03/01 04:48:27;;;;;;;31.65;20.30;;;-1.90;99.90;;;;;;5039320;28;20222;-40
2022/03/01 04:50:54;;;;;;;38.72;22.30;;;-1.90;99.90;;;;;;5039382;28;20240;-40
2022/03/01 04:53:21;;;;;;;36.47;18.38;;;-2.00;99.90;;;;;;5041306;28;20211;-42
2022/03/01 04:55:49;;;;;;;35.67;23.05;;;-2.00;99.90;;;;;;5040021;28;20222;-41
2022/03/01 04:58:18;;;;;;;35.25;19.95;;;-2.00;99.90;;;;;;5043004;28;20226;-50
2022/03/01 05:00:45;;;;;;;37.47;19.75;;;-1.90;99.90;;;;;;5041530;28;20244;-40
2022/03/01 05:03:13;;;;;;;32.78;18.85;;;-1.70;99.90;;;;;;5038999;28;20192;-40
2022/03/01 05:05:40;;;;;;;34.45;19.77;;;-1.70;99.90;;;;;;5039269;28;20267;-41
2022/03/01 05:08:07;;;;;;;30.35;18.23;;;-1.60;99.90;;;;;;5038414;28;20326;-41
2022/03/01 05:10:34;;;;;;;43.80;21.75;;;-1.70;99.90;;;;;;5041779;28;20269;-43
2022/03/01 05:13:05;;;;;;;31.88;18.38;;;-1.80;99.90;;;;;;5050479;28;20227;-44
2022/03/01 05:15:32;;;;;;;35.13;20.20;;;-1.70;99.90;;;;;;5051303;28;20231;-40
2022/03/01 05:17:59;;;;;;;35.47;21.27;;;-1.60;99.90;;;;;;5051394;28;20333;-41
2022/03/01 05:20:27;;;;;;;31.77;20.75;;;-1.70;99.90;;;;;;5048870;28;20612;-40
2022/03/01 05:22:55;;;;;;;32.83;21.67;;;-1.70;99.90;;;;;;5048340;28;20223;-39
2022/03/01 05:25:23;;;;;;;32.80;22.38;;;-1.70;99.90;;;;;;5051969;28;20269;-41
2022/03/01 05:27:52;;;;;;;30.30;21.33;;;-1.70;99.90;;;;;;5051832;28;20269;-39
2022/03/01 05:30:20;;;;;;;33.97;20.67;;;-1.70;99.90;;;;;;5049957;28;20212;-39
2022/03/01 05:32:50;;;;;;;35.50;20.23;;;-1.70;99.90;;;;;;5061109;28;20220;-41
2022/03/01 05:35:20;;;;;;;26.60;21.20;;;-1.70;99.90;;;;;;5061388;28;20431;-40
2022/03/01 05:37:49;;;;;;;34.17;22.08;;;-1.70;99.90;;;;;;5058784;28;20302;-39
2022/03/01 05:40:17;;;;;;;37.92;23.00;;;-1.70;99.90;;;;;;5058442;28;20196;-39
2022/03/01 05:42:44;;;;;;;27.95;20.88;;;-1.80;99.90;;;;;;5058681;28;20219;-41
2022/03/01 05:45:12;;;;;;;31.48;19.17;;;-1.90;99.90;;;;;;5058872;28;20413;-41
2022/03/01 05:47:43;;;;;;;35.28;22.13;;;-1.80;99.90;;;;;;5057638;28;20408;-40
2022/03/01 05:50:12;;;;;;;32.08;20.95;;;-1.80;99.90;;;;;;5058313;28;20215;-39
2022/03/01 05:52:45;;;;;;;24.92;20.15;;;-1.60;99.90;;;;;;5046312;28;20468;-40
2022/03/01 05:55:12;;;;;;;27.92;19.88;;;-1.60;99.90;;;;;;5044429;28;20200;-43
2022/03/01 05:57:40;;;;;;;34.38;21.70;;;-1.40;99.90;;;;;;5053864;28;20615;-45
2022/03/01 06:00:12;;;;;;;33.15;21.02;;;-1.40;99.90;;;;;;5056535;28;20197;-44
2022/03/01 06:02:40;;;;;;;28.55;20.77;;;-1.10;99.90;;;;;;5042436;28;20284;-42
2022/03/01 06:05:08;;;;;;;38.40;24.40;;;-0.80;99.90;;;;;;5050053;28;20214;-41
2022/03/01 06:07:35;;;;;;;30.90;20.42;;;-0.60;99.90;;;;;;5058250;28;20229;-43
2022/03/01 06:10:04;;;;;;;34.00;22.30;;;-0.90;99.90;;;;;;5047324;28;20207;-45
2022/03/01 06:12:31;;;;;;;28.10;20.33;;;-0.90;99.90;;;;;;5052143;28;20243;-42
2022/03/01 06:14:59;;;;;;;31.35;21.02;;;-0.90;99.90;;;;;;5055641;28;20251;-42
2022/03/01 06:17:26;;;;;;;31.58;18.95;;;-0.70;99.90;;;;;;5055865;28;20442;-42
2022/03/01 06:19:53;;;;;;;25.45;17.17;;;-0.70;99.90;;;;;;5043688;28;20307;-40
2022/03/01 06:22:20;;;;;;;34.35;19.77;;;-0.90;99.90;;;;;;5043845;28;20566;-46
2022/03/01 06:24:48;;;;;;;26.08;18.95;;;-1.10;99.90;;;;;;5042949;28;20208;-41
2022/03/01 06:27:16;;;;;;;27.38;19.08;;;-1.20;99.90;;;;;;5042778;28;20402;-42
2022/03/01 06:29:43;;;;;;;25.75;18.90;;;-1.10;99.90;;;;;;5008926;28;20235;-41
2022/03/01 06:32:10;;;;;;;31.67;19.10;;;-0.70;99.90;;;;;;5040570;28;20254;-41
2022/03/01 06:34:37;;;;;;;27.17;16.27;;;-0.40;99.90;;;;;;5024091;28;20208;-41
2022/03/01 06:37:24;;;;;;;36.85;17.65;;;-0.10;99.90;;;;;;5051028;28;20211;-40
2022/03/01 06:39:53;;;;;;;28.27;17.33;;;0.20;99.90;;;;;;5056718;28;20436;-41
2022/03/01 06:42:20;;;;;;;27.88;17.15;;;0.30;99.90;;;;;;5049168;28;20223;-39
2022/03/01 06:44:48;;;;;;;39.13;19.02;;;0.70;99.90;;;;;;5044218;28;20205;-45
2022/03/01 06:47:15;;;;;;;26.17;16.55;;;0.90;99.90;;;;;;5047455;28;20215;-43
2022/03/01 06:49:43;;;;;;;31.35;18.25;;;1.20;99.90;;;;;;5054108;28;20226;-41
2022/03/01 06:52:11;;;;;;;23.48;16.52;;;1.50;99.90;;;;;;5060943;28;20234;-44
2022/03/01 06:54:44;;;;;;;21.42;14.48;;;1.90;99.90;;;;;;5061999;28;20204;-40
2022/03/01 06:57:11;;;;;;;26.85;16.42;;;2.00;99.90;;;;;;5061875;28;20223;-45
2022/03/01 06:59:39;;;;;;;31.17;17.00;;;1.70;99.90;;;;;;5059886;28;20239;-43
2022/03/01 07:02:07;;;;;;;31.02;17.00;;;1.60;99.90;;;;;;5051369;28;20560;-39
2022/03/01 07:04:35;;;;;;;31.13;17.15;;;1.80;99.90;;;;;;5060935;28;20200;-40
2022/03/01 07:07:02;;;;;;;32.88;16.60;;;1.80;99.90;;;;;;5061044;28;20266;-42
2022/03/01 07:09:29;;;;;;;26.90;14.82;;;1.70;99.90;;;;;;5042990;28;20196;-43
2022/03/01 07:11:56;;;;;;;19.23;14.32;;;1.80;99.90;;;;;;5060691;28;20220;-41
2022/03/01 07:14:24;;;;;;;30.02;17.45;;;2.00;99.90;;;;;;5060236;28;20195;-41
2022/03/01 07:16:51;;;;;;;22.42;15.25;;;2.50;99.90;;;;;;5060726;28;20196;-42
2022/03/01 07:19:18;;;;;;;29.77;15.82;;;3.10;99.90;;;;;;5060498;28;20196;-42
2022/03/01 07:21:45;;;;;;;27.67;15.98;;;3.30;99.90;;;;;;5060312;28;20228;-42
2022/03/01 07:24:12;;;;;;;25.98;16.20;;;3.50;99.90;;;;;;5042247;28;20194;-44
2022/03/01 07:26:40;;;;;;;26.48;15.02;;;3.20;99.90;;;;;;5061587;28;20205;-40
2022/03/01 07:29:07;;;;;;;33.78;16.73;;;2.80;99.90;;;;;;5045180;28;20206;-40
2022/03/01 07:31:34;;;;;;;25.52;16.92;;;2.60;99.90;;;;;;5061837;28;20217;-41
2022/03/01 07:34:03;;;;;;;22.85;14.55;;;3.00;99.90;;;;;;5060325;28;20520;-40
2022/03/01 07:36:30;;;;;;;34.70;18.63;;;3.70;99.90;;;;;;5060424;28;20594;-41
2022/03/01 07:38:57;;;;;;;26.60;16.92;;;4.50;99.90;;;;;;5026289;28;20684;-40
2022/03/01 07:41:24;;;;;;;24.20;14.68;;;5.40;99.90;;;;;;5042418;28;20228;-41
2022/03/01 07:43:52;;;;;;;25.25;16.05;;;6.10;99.90;;;;;;5051859;28;20191;-43
2022/03/01 07:46:19;;;;;;;30.02;15.43;;;6.80;99.90;;;;;;5058759;28;20200;-42
2022/03/01 07:48:47;;;;;;;26.83;15.23;;;7.20;99.90;;;;;;5041858;28;20203;-48
2022/03/01 07:51:14;;;;;;;27.92;17.48;;;8.20;99.90;;;;;;5058741;28;20255;-41
2022/03/01 07:53:42;;;;;;;22.08;15.15;;;8.20;99.90;;;;;;5058680;28;20200;-42
2022/03/01 07:56:09;;;;;;;28.65;17.95;;;9.20;99.90;;;;;;5058187;28;20384;-44
2022/03/01 07:58:36;;;;;;;26.08;14.55;;;10.50;99.90;;;;;;5059421;28;20220;-42
2022/03/01 08:01:03;;;;;;;23.65;15.73;;;10.80;99.90;;;;;;5041398;28;20251;-44
2022/03/01 08:03:31;;;;;;;25.85;16.95;;;10.60;99.90;;;;;;5038466;28;20238;-46
2022/03/01 08:05:58;;;;;;;27.70;16.35;;;10.70;99.90;;;;;;5037825;28;20257;-46
2022/03/01 08:08:26;;;;;;;25.65;15.35;;;10.70;99.90;;;;;;5038817;28;20289;-47
2022/03/01 08:10:53;;;;;;;21.83;14.60;;;11.20;99.90;;;;;;5038861;28;20215;-42
2022/03/01 08:13:41;;;;;;;21.00;15.20;;;10.90;99.20;;;;;;5038985;28;20233;-47
2022/03/01 08:16:08;;;;;;;23.08;13.82;;;9.80;99.90;;;;;;5039289;28;20258;-47
2022/03/01 08:18:36;;;;;;;24.75;16.08;;;9.30;99.90;;;;;;5039146;28;20235;-48
2022/03/01 08:21:03;;;;;;;22.48;15.52;;;8.50;99.90;;;;;;5038928;28;20262;-44
2022/03/01 08:23:30;;;;;;;20.90;14.07;;;9.50;99.90;;;;;;5039065;28;20668;-48
2022/03/01 08:25:58;;;;;;;20.17;14.93;;;9.40;99.90;;;;;;5039178;28;20344;-47
2022/03/01 08:28:26;;;;;;;26.20;16.40;;;9.70;99.90;;;;;;5039016;28;20270;-44
2022/03/01 08:30:56;;;;;;;28.73;17.30;;;9.10;99.90;;;;;;5039290;28;20203;-42
2022/03/01 08:33:24;;;;;;;23.60;16.10;;;9.30;99.90;;;;;;5037054;28;20523;-44
2022/03/01 08:35:55;;;;;;;23.88;16.45;;;9.60;99.90;;;;;;5018585;28;20206;-45
2022/03/01 08:38:25;;;;;;;20.92;15.82;;;10.30;99.90;;;;;;5028681;28;20234;-47
2022/03/01 08:40:53;;;;;;;23.92;14.50;;;10.10;99.90;;;;;;5050768;28;20199;-43
2022/03/01 08:43:22;;;;;;;26.10;17.15;;;9.90;99.90;;;;;;5058762;28;20199;-44
2022/03/01 08:45:50;;;;;;;25.25;17.23;;;9.40;99.90;;;;;;5059074;28;20442;-46
2022/03/01 08:48:18;;;;;;;27.25;17.20;;;10.00;99.90;;;;;;5039529;28;20513;-44
2022/03/01 08:50:45;;;;;;;24.45;17.40;;;11.50;99.10;;;;;;5055456;28;20199;-46
2022/03/01 08:53:16;;;;;;;26.48;19.30;;;12.30;96.70;;;;;;5057155;28;20210;-43
2022/03/01 08:55:44;;;;;;;22.90;16.92;;;12.00;95.90;;;;;;5058784;28;20388;-44
2022/03/01 08:58:12;;;;;;;23.00;16.00;;;10.90;97.20;;;;;;5059013;28;20244;-45
2022/03/01 09:00:39;;;;;;;21.73;15.27;;;10.40;99.00;;;;;;5051395;28;20303;-47
2022/03/01 09:03:07;;;;;;;26.95;16.05;;;10.30;99.10;;;;;;5038114;28;20482;-48
2022/03/01 09:05:35;;;;;;;25.80;15.80;;;9.70;99.90;;;;;;5038371;28;20205;-44
2022/03/01 09:08:03;;;;;;;19.70;15.00;;;9.70;99.90;;;;;;5038790;28;20388;-46
2022/03/01 09:10:31;;;;;;;28.05;15.15;;;10.10;99.90;;;;;;5038662;28;20194;-46
2022/03/01 09:12:59;;;;;;;22.45;14.65;;;9.80;99.90;;;;;;5038784;28;20223;-42
2022/03/01 09:15:30;;;;;;;27.33;16.08;;;9.90;99.90;;;;;;5038797;28;20264;-43
2022/03/01 09:18:03;;;;;;;21.88;14.48;;;11.10;98.80;;;;;;5039230;28;20314;-49
2022/03/01 09:20:31;;;;;;;18.67;12.23;;;10.80;97.10;;;;;;5038717;28;20207;-49
2022/03/01 09:22:59;;;;;;;20.35;14.02;;;10.00;99.00;;;;;;5038687;28;20551;-44
2022/03/01 09:25:29;;;;;;;25.88;12.75;;;9.30;99.90;;;;;;5038647;28;20202;-44
2022/03/01 09:27:57;;;;;;;18.42;13.40;;;8.60;99.90;;;;;;5038172;28;20515;-43
2022/03/01 09:30:24;;;;;;;18.80;14.25;;;8.60;99.90;;;;;;5038352;28;20500;-42
2022/03/01 09:32:52;;;;;;;16.92;12.75;;;8.00;99.90;;;;;;5049449;28;20231;-47
2022/03/01 09:35:19;;;;;;;23.05;13.95;;;7.00;99.90;;;;;;5046277;28;20200;-43
2022/03/01 09:37:46;;;;;;;21.08;14.15;;;6.50;99.90;;;;;;5038474;28;20234;-43
2022/03/01 09:40:14;;;;;;;22.90;13.38;;;5.90;99.90;;;;;;5038066;28;20509;-45
2022/03/01 09:42:42;;;;;;;19.98;14.02;;;5.50;99.90;;;;;;5038072;28;20224;-46
2022/03/01 09:45:12;;;;;;;18.10;14.68;;;5.70;99.90;;;;;;5038482;28;20268;-48
2022/03/01 09:47:40;;;;;;;34.45;14.93;;;6.00;99.90;;;;;;5038237;28;20223;-45
2022/03/01 09:50:10;;;;;;;20.20;12.63;;;5.70;99.90;;;;;;5042286;28;20211;-46
2022/03/01 09:52:38;;;;;;;27.15;13.98;;;5.60;99.90;;;;;;5042265;28;20222;-44
2022/03/01 09:55:07;;;;;;;25.45;17.83;;;5.40;99.90;;;;;;5042217;28;20231;-43
2022/03/01 09:57:36;;;;;;;19.48;14.70;;;5.10;99.90;;;;;;5042604;28;20450;-43
2022/03/01 10:00:05;;;;;;;20.42;14.35;;;4.90;99.90;;;;;;5042545;28;20210;-44
2022/03/01 10:02:40;;;;;;;30.10;16.33;;;4.80;99.90;;;;;;5041154;28;20216;-48
2022/03/01 10:05:09;;;;;;;28.38;15.50;;;4.80;99.90;;;;;;5040153;28;20199;-51
2022/03/01 10:07:42;;;;;;;22.90;14.90;;;4.90;99.90;;;;;;5041305;28;20208;-44
2022/03/01 10:10:16;;;;;;;20.27;13.73;;;4.80;99.90;;;;;;5041254;28;20429;-47
2022/03/01 10:12:52;;;;;;;18.35;10.90;;;5.00;99.90;;;;;;5041990;28;20219;-50
2022/03/01 10:15:27;;;;;;;16.05;10.77;;;4.90;99.90;;;;;;5041668;28;20203;-46
2022/03/01 10:17:55;;;;;;;18.13;13.02;;;4.70;99.90;;;;;;5042088;28;20219;-48
2022/03/01 10:20:22;;;;;;;16.48;10.77;;;4.90;99.90;;;;;;5043765;28;20210;-44
2022/03/01 10:22:56;;;;;;;18.25;12.60;;;4.80;99.90;;;;;;5041471;28;20222;-45
2022/03/01 10:25:25;;;;;;;12.80;10.77;;;4.80;99.90;;;;;;5046932;28;20273;-45
2022/03/01 10:27:54;;;;;;;13.90;10.30;;;4.90;99.90;;;;;;5053300;28;20195;-45
2022/03/01 10:30:28;;;;;;;14.70;10.27;;;4.90;99.90;;;;;;5061252;28;20200;-49
2022/03/01 10:33:05;;;;;;;16.63;11.40;;;5.00;99.90;;;;;;5061241;28;20226;-46
2022/03/01 10:35:32;;;;;;;19.58;12.00;;;5.10;99.90;;;;;;5061248;28;20210;-46
2022/03/01 10:38:04;;;;;;;15.77;10.98;;;5.20;99.90;;;;;;5060706;28;20218;-49
2022/03/01 10:40:32;;;;;;;17.50;12.60;;;5.30;99.90;;;;;;5061133;28;20200;-48
2022/03/01 10:43:04;;;;;;;27.55;12.82;;;5.50;99.90;;;;;;5061077;28;20284;-45
2022/03/01 10:45:41;;;;;;;16.35;12.10;;;5.50;99.90;;;;;;5060677;28;20413;-45
2022/03/01 10:48:11;;;;;;;16.45;10.77;;;5.50;99.90;;;;;;5061142;28;20229;-43
2022/03/01 10:50:40;;;;;;;14.93;10.77;;;5.70;99.90;;;;;;5061095;28;20470;-48
2022/03/01 10:53:07;;;;;;;17.75;10.13;;;5.60;99.90;;;;;;5060624;28;20223;-47
2022/03/01 10:55:38;;;;;;;16.45;11.65;;;5.70;99.90;;;;;;5059981;28;20306;-46
2022/03/01 10:58:12;;;;;;;16.17;10.20;;;5.60;99.90;;;;;;5061130;28;20603;-45
2022/03/01 11:00:39;;;;;;;15.27;9.65;;;5.70;99.90;;;;;;5060424;28;20202;-52
2022/03/01 11:03:09;;;;;;;15.27;8.65;;;5.90;99.90;;;;;;5060721;28;20228;-52
2022/03/01 11:05:37;;;;;;;15.93;9.15;;;5.60;99.90;;;;;;5060645;28;20234;-49
2022/03/01 11:08:32;;;;;;;13.60;9.43;;;5.40;99.90;;;;;;5060835;28;20195;-45
2022/03/01 11:11:00;;;;;;;13.32;9.82;;;5.20;99.90;;;;;;5061131;28;20207;-48
2022/03/01 11:13:30;;;;;;;22.00;10.95;;;5.30;99.90;;;;;;5060061;28;20261;-49
2022/03/01 11:16:27;;;;;;;16.70;10.90;;;5.30;99.90;;;;;;5060705;28;20518;-50
2022/03/01 11:19:17;;;;;;;17.48;11.27;;;5.40;99.90;;;;;;5051503;28;20717;-47
2022/03/01 11:21:48;;;;;;;13.73;10.30;;;5.40;99.90;;;;;;5040630;28;20224;-48
2022/03/01 11:24:18;;;;;;;18.00;9.95;;;5.40;99.90;;;;;;5040300;28;20218;-49
2022/03/01 11:26:46;;;;;;;18.23;11.73;;;5.60;99.90;;;;;;5040778;28;20236;-47
2022/03/01 11:29:17;;;;;;;23.15;11.75;;;5.50;99.90;;;;;;5040238;28;20243;-53
2022/03/01 11:31:57;;;;;;;15.68;10.30;;;5.60;99.90;;;;;;5040601;28;20227;-44
2022/03/01 11:34:25;;;;;;;13.57;9.77;;;5.60;99.90;;;;;;5040641;28;20193;-44
2022/03/01 11:36:55;;;;;;;14.77;10.35;;;5.60;99.90;;;;;;5040962;28;20276;-45
2022/03/01 11:39:27;;;;;;;16.33;11.15;;;5.60;99.90;;;;;;5040783;28;20247;-46
2022/03/01 11:42:07;;;;;;;16.35;10.70;;;5.60;99.90;;;;;;5040383;28;20224;-45
2022/03/01 11:44:37;;;;;;;16.85;9.75;;;5.40;99.90;;;;;;5040230;28;20204;-47
2022/03/01 11:47:07;;;;;;;14.68;10.90;;;5.40;99.90;;;;;;5040175;28;20203;-48
2022/03/01 11:49:37;;;;;;;15.02;10.75;;;5.50;99.90;;;;;;5040036;28;20211;-49
2022/03/01 11:52:16;;;;;;;15.93;11.00;;;5.50;99.90;;;;;;5039702;28;20255;-45
2022/03/01 11:54:43;;;;;;;16.50;11.02;;;5.70;99.90;;;;;;5040170;28;20247;-49
2022/03/01 11:57:12;;;;;;;17.17;10.90;;;5.60;99.90;;;;;;5040337;28;20207;-46
2022/03/01 11:59:39;;;;;;;16.88;10.93;;;5.50;99.90;;;;;;5039806;28;20234;-45
2022/03/01 12:02:18;;;;;;;16.33;9.85;;;5.50;99.90;;;;;;5039463;28;20265;-47
2022/03/01 12:04:51;;;;;;;14.27;9.90;;;5.50;99.90;;;;;;5048158;28;20204;-48
2022/03/01 12:07:23;;;;;;;18.85;11.25;;;5.80;99.90;;;;;;5059492;28;20205;-46
2022/03/01 12:09:55;;;;;;;14.13;11.05;;;5.70;99.90;;;;;;5059867;28;20199;-50
2022/03/01 12:12:32;;;;;;;12.75;9.73;;;5.70;99.90;;;;;;5058978;28;20429;-50
2022/03/01 12:14:59;;;;;;;15.05;9.90;;;5.60;99.90;;;;;;5059260;28;20199;-45
2022/03/01 12:17:26;;;;;;;13.95;9.98;;;5.60;99.90;;;;;;5058082;28;20281;-46
2022/03/01 12:20:00;;;;;;;14.65;11.43;;;5.70;99.90;;;;;;5056730;28;20223;-48
2022/03/01 12:22:28;;;;;;;19.33;10.70;;;5.80;99.90;;;;;;5040310;28;20612;-45
2022/03/01 12:24:56;;;;;;;14.63;10.30;;;5.80;99.90;;;;;;5041782;28;20200;-46
2022/03/01 12:27:29;;;;;;;11.10;8.73;;;5.70;99.90;;;;;;5045230;28;20772;-45
2022/03/01 12:30:02;;;;;;;12.98;9.52;;;5.70;99.90;;;;;;5051221;28;20234;-46
2022/03/01 12:32:33;;;;;;;9.48;8.13;;;5.80;99.90;;;;;;5050912;28;20464;-47
2022/03/01 12:35:02;;;;;;;14.38;10.05;;;5.90;99.90;;;;;;5041371;28;20415;-46
2022/03/01 12:37:30;;;;;;;13.85;10.02;;;5.60;99.90;;;;;;5038585;28;20196;-51
2022/03/01 12:39:57;;;;;;;17.75;10.63;;;5.50;99.90;;;;;;5046422;28;20712;-45